createdAt,value
2023-04-03T00:12:50.399Z,7.40
2023-04-03T00:18:16.450Z,7.40
2023-04-03T00:29:29.404Z,7.50
2023-04-03T00:34:54.484Z,7.50
2023-04-03T00:40:18.566Z,7.50
2023-04-03T00:45:46.504Z,7.50
2023-04-03T00:51:12.546Z,7.50
2023-04-03T00:56:39.615Z,7.50
2023-04-03T01:02:03.501Z,7.60
2023-04-03T01:07:34.531Z,7.50
2023-04-03T01:12:59.558Z,7.50
2023-04-03T01:18:22.504Z,7.50
2023-04-03T01:24:01.558Z,7.50
2023-04-03T01:29:26.472Z,7.40
2023-04-03T01:34:51.541Z,7.40
2023-04-03T01:40:16.502Z,7.30
2023-04-03T01:45:39.521Z,7.20
2023-04-03T01:51:04.490Z,7.20
2023-04-03T01:56:27.616Z,7.10
2023-04-03T02:01:51.522Z,7.10
2023-04-03T02:07:16.542Z,7.10
2023-04-03T02:12:39.503Z,7.10
2023-04-03T02:18:02.676Z,7.10
2023-04-03T02:23:32.486Z,7.10
2023-04-03T02:28:56.641Z,7.00
2023-04-03T02:34:23.627Z,7.10
2023-04-03T02:45:39.691Z,7.00
2023-04-03T02:51:03.639Z,6.90
2023-04-03T02:56:28.805Z,6.90
2023-04-03T03:01:52.566Z,6.80
2023-04-03T03:07:16.550Z,6.70
2023-04-03T03:12:41.555Z,6.70
2023-04-03T03:18:04.580Z,6.60
2023-04-03T03:23:27.550Z,6.50
2023-04-03T03:28:54.559Z,6.40
2023-04-03T03:34:18.563Z,6.30
2023-04-03T03:45:19.658Z,6.10
2023-04-03T03:50:42.672Z,6.00
2023-04-03T03:56:06.538Z,6.00
2023-04-03T04:01:33.659Z,5.80
2023-04-03T04:06:57.624Z,5.70
2023-04-03T04:12:22.522Z,5.70
2023-04-03T04:17:48.643Z,5.60
2023-04-03T04:23:12.570Z,5.50
2023-04-03T04:28:36.780Z,5.40
2023-04-03T04:34:01.571Z,5.30
2023-04-03T04:39:26.584Z,5.20
2023-04-03T04:44:49.617Z,5.10
2023-04-03T04:50:16.652Z,5.10
2023-04-03T04:55:40.738Z,5.00
2023-04-03T05:01:08.650Z,4.90
2023-04-03T05:06:45.624Z,4.90
2023-04-03T05:12:12.544Z,4.80
2023-04-03T05:17:42.676Z,4.70
2023-04-03T05:23:08.610Z,4.70
2023-04-03T05:28:32.673Z,4.60
2023-04-03T05:33:56.597Z,4.60
2023-04-03T05:39:24.705Z,4.60
2023-04-03T05:44:50.620Z,4.60
2023-04-03T05:50:15.836Z,4.60
2023-04-03T05:55:45.603Z,4.60
2023-04-03T06:01:08.628Z,4.60
2023-04-03T06:06:56.137Z,4.60
2023-04-03T06:12:27.720Z,4.60
2023-04-03T06:17:50.653Z,4.60
2023-04-03T06:23:14.616Z,4.70
2023-04-03T06:28:40.607Z,4.80
2023-04-03T06:34:03.672Z,4.80
2023-04-03T06:39:30.691Z,4.90
2023-04-03T06:44:55.655Z,5.00
2023-04-03T06:50:21.645Z,5.00
2023-04-03T06:55:45.690Z,5.10
2023-04-03T07:01:12.790Z,5.20
2023-04-03T07:06:39.662Z,5.30
2023-04-03T07:12:02.715Z,5.40
2023-04-03T07:17:28.758Z,5.40
2023-04-03T07:22:51.620Z,5.60
2023-04-03T07:28:15.647Z,5.60
2023-04-03T07:33:41.612Z,5.70
2023-04-03T07:39:04.730Z,5.60
2023-04-03T07:44:27.771Z,5.60
2023-04-03T07:49:55.910Z,5.70
2023-04-03T07:55:24.776Z,5.70
2023-04-03T08:00:47.860Z,5.80
2023-04-03T08:06:16.341Z,5.90
2023-04-03T08:11:39.737Z,5.80
2023-04-03T08:17:03.787Z,5.80
2023-04-03T08:22:31.526Z,5.90
2023-04-03T08:27:54.694Z,6.00
2023-04-03T08:33:19.800Z,6.10
2023-04-03T08:38:44.719Z,6.20
2023-04-03T08:44:30.735Z,6.40
2023-04-03T08:49:58.752Z,6.50
2023-04-03T08:55:39.106Z,6.60
2023-04-03T09:01:07.806Z,6.70
2023-04-03T09:06:37.319Z,6.80
2023-04-03T09:12:16.747Z,6.90
2023-04-03T09:17:54.766Z,6.90
2023-04-03T09:23:28.765Z,7.10
2023-04-03T09:28:54.712Z,7.40
2023-04-03T09:34:26.700Z,7.50
2023-04-03T09:40:08.735Z,7.70
2023-04-03T09:45:35.708Z,7.70
2023-04-03T09:51:11.947Z,7.80
2023-04-03T09:56:37.740Z,7.80
2023-04-03T10:02:13.752Z,7.80
2023-04-03T10:07:54.470Z,8.00
2023-04-03T10:13:24.728Z,8.20
2023-04-03T10:18:55.791Z,8.40
2023-04-03T10:24:26.808Z,8.50
2023-04-03T10:29:57.777Z,8.60
2023-04-03T10:35:48.854Z,8.70
2023-04-03T10:41:18.727Z,8.90
2023-04-03T10:46:51.824Z,9.00
2023-04-03T10:52:24.883Z,9.10
2023-04-03T10:57:47.861Z,9.20
2023-04-03T11:03:14.770Z,9.30
2023-04-03T11:08:50.766Z,9.40
2023-04-03T11:14:26.808Z,9.40
2023-04-03T11:19:53.828Z,9.40
2023-04-03T11:25:32.821Z,9.30
2023-04-03T11:31:04.020Z,9.30
2023-04-03T11:36:35.799Z,9.40
2023-04-03T11:42:12.502Z,9.60
2023-04-03T11:48:07.311Z,9.70
2023-04-03T11:53:42.758Z,9.90
2023-04-03T11:59:36.847Z,10.00
2023-04-03T12:05:36.950Z,10.10
2023-04-03T12:11:30.817Z,10.20
2023-04-03T12:16:59.928Z,10.30
2023-04-03T12:22:32.284Z,10.40
2023-04-03T12:27:55.799Z,10.40
2023-04-03T12:33:37.956Z,10.50
2023-04-03T12:39:11.836Z,10.60
2023-04-03T12:44:50.944Z,10.50
2023-04-03T12:50:30.858Z,10.50
2023-04-03T12:55:53.846Z,10.70
2023-04-03T13:01:26.036Z,10.80
2023-04-03T13:06:55.808Z,11.00
2023-04-03T13:12:21.899Z,11.20
2023-04-03T13:17:45.999Z,11.20
2023-04-03T13:23:19.320Z,11.10
2023-04-03T13:28:42.921Z,10.80
2023-04-03T13:34:12.874Z,10.70
2023-04-03T13:39:40.932Z,10.70
2023-04-03T13:45:19.911Z,10.90
2023-04-03T13:50:42.857Z,11.10
2023-04-03T13:56:15.868Z,11.20
2023-04-03T14:01:39.980Z,11.30
2023-04-03T14:07:03.976Z,11.30
2023-04-03T14:12:32.896Z,11.40
2023-04-03T14:18:00.339Z,11.50
2023-04-03T14:23:24.173Z,11.60
2023-04-03T14:28:50.231Z,11.70
2023-04-03T14:34:12.980Z,11.80
2023-04-03T14:39:38.171Z,11.90
2023-04-03T14:45:02.917Z,11.80
2023-04-03T14:50:29.904Z,11.60
2023-04-03T14:55:52.937Z,11.40
2023-04-03T15:01:24.951Z,11.40
2023-04-03T15:06:49.960Z,11.60
2023-04-03T15:17:42.484Z,11.90
2023-04-03T15:23:08.962Z,11.90
2023-04-03T15:28:38.074Z,11.80
2023-04-03T15:34:02.903Z,11.70
2023-04-03T15:39:26.028Z,11.60
2023-04-03T15:44:48.987Z,11.40
2023-04-03T15:50:15.034Z,11.10
2023-04-03T15:55:42.918Z,10.90
2023-04-03T16:01:06.970Z,10.70
2023-04-03T16:06:38.136Z,10.70
2023-04-03T16:12:00.994Z,10.60
2023-04-03T16:17:53.651Z,10.50
2023-04-03T16:23:33.953Z,10.30
2023-04-03T16:35:21.500Z,10.20
2023-04-03T16:41:18.044Z,10.30
2023-04-03T16:47:09.472Z,10.30
2023-04-03T17:05:49.791Z,10.20
2023-04-03T17:12:18.442Z,9.80
2023-04-03T17:46:42.192Z,9.60
2023-04-03T18:12:13.413Z,8.90
2023-04-03T18:17:38.520Z,8.80
2023-04-03T18:22:42.811Z,8.60
2023-04-03T18:28:06.690Z,8.60
2023-04-03T18:33:10.179Z,8.60
2023-04-03T18:38:23.950Z,8.50
2023-04-03T18:43:41.238Z,8.50
2023-04-03T19:16:48.030Z,7.80
2023-04-03T20:07:26.607Z,7.00
2023-04-03T20:12:52.547Z,6.80
2023-04-03T20:18:25.642Z,6.80
2023-04-03T20:23:53.981Z,6.70
2023-04-03T20:29:16.550Z,6.50
2023-04-03T20:34:48.224Z,6.50
2023-04-03T20:40:25.588Z,6.40
2023-04-03T20:45:52.945Z,6.30
2023-04-03T20:51:23.462Z,6.20
2023-04-03T20:56:51.050Z,5.90
2023-04-03T21:02:13.622Z,5.70
2023-04-03T21:08:22.558Z,5.50
2023-04-03T21:14:24.450Z,5.40
2023-04-03T21:19:52.601Z,5.20
2023-04-03T21:25:16.588Z,5.00
2023-04-03T21:30:42.193Z,4.90
2023-04-03T21:36:14.599Z,4.90
2023-04-03T21:41:40.695Z,4.80
2023-04-03T21:47:03.608Z,4.80
2023-04-03T21:52:31.843Z,4.70
2023-04-03T21:58:07.737Z,4.70
2023-04-03T22:03:35.569Z,4.70
2023-04-03T22:09:06.676Z,4.70
2023-04-03T22:14:32.528Z,4.70
2023-04-03T22:21:12.396Z,4.70
2023-04-03T22:26:38.883Z,4.80
2023-04-03T22:31:42.885Z,4.90
2023-04-03T22:36:46.542Z,4.90
2023-04-03T22:41:52.756Z,4.90
2023-04-03T22:46:55.987Z,4.90
2023-04-03T22:51:59.450Z,4.90
2023-04-03T22:57:10.326Z,5.00
2023-04-03T23:02:13.676Z,4.90
2023-04-03T23:07:17.422Z,5.00
2023-04-03T23:12:22.642Z,4.90
2023-04-03T23:17:26.109Z,4.90
2023-04-03T23:22:29.735Z,4.80
2023-04-03T23:27:34.595Z,4.70
2023-04-03T23:32:43.227Z,4.60
2023-04-03T23:37:46.693Z,4.60
2023-04-03T23:42:51.681Z,4.60
2023-04-03T23:47:55.058Z,4.50
2023-04-03T23:52:59.025Z,4.50
2023-04-03T23:58:03.644Z,4.50
